sensor_id;sensor_type;location;lat;lon;timestamp;P1;durP1;ratioP1;P2;durP2;ratioP2
11614;SDS011;5863;52.832;4.758;2023-04-25T00:01:45;17.43;;;2.80;;
11614;SDS011;5863;52.832;4.758;2023-04-25T00:04:12;11.90;;;2.80;;
11614;SDS011;5863;52.832;4.758;2023-04-25T00:06:39;10.10;;;2.40;;
11614;SDS011;5863;52.832;4.758;2023-04-25T00:09:06;13.50;;;2.40;;
11614;SDS011;5863;52.832;4.758;2023-04-25T00:11:35;8.63;;;2.43;;
11614;SDS011;5863;52.832;4.758;2023-04-25T00:14:01;9.77;;;2.63;;
11614;SDS011;5863;52.832;4.758;2023-04-25T00:16:28;7.63;;;2.20;;
11614;SDS011;5863;52.832;4.758;2023-04-25T00:19:00;9.30;;;2.60;;
11614;SDS011;5863;52.832;4.758;2023-04-25T00:21:28;12.40;;;2.70;;
11614;SDS011;5863;52.832;4.758;2023-04-25T00:23:56;9.43;;;2.63;;
11614;SDS011;5863;52.832;4.758;2023-04-25T00:26:23;12.97;;;2.87;;
11614;SDS011;5863;52.832;4.758;2023-04-25T00:28:56;8.17;;;2.40;;
11614;SDS011;5863;52.832;4.758;2023-04-25T00:31:22;6.30;;;2.07;;
11614;SDS011;5863;52.832;4.758;2023-04-25T00:33:49;5.27;;;1.90;;
11614;SDS011;5863;52.832;4.758;2023-04-25T00:36:17;10.30;;;2.50;;
11614;SDS011;5863;52.832;4.758;2023-04-25T00:38:44;11.83;;;2.20;;
11614;SDS011;5863;52.832;4.758;2023-04-25T00:41:21;14.37;;;2.73;;
11614;SDS011;5863;52.832;4.758;2023-04-25T00:43:48;11.80;;;2.80;;
11614;SDS011;5863;52.832;4.758;2023-04-25T00:46:15;7.67;;;2.30;;
11614;SDS011;5863;52.832;4.758;2023-04-25T00:48:43;9.80;;;2.70;;
11614;SDS011;5863;52.832;4.758;2023-04-25T00:51:11;11.50;;;3.03;;
11614;SDS011;5863;52.832;4.758;2023-04-25T00:53:44;10.37;;;2.57;;
11614;SDS011;5863;52.832;4.758;2023-04-25T00:56:11;11.33;;;2.70;;
11614;SDS011;5863;52.832;4.758;2023-04-25T00:58:38;13.97;;;2.80;;
11614;SDS011;5863;52.832;4.758;2023-04-25T01:01:07;14.37;;;3.17;;
11614;SDS011;5863;52.832;4.758;2023-04-25T01:03:34;11.20;;;2.97;;
11614;SDS011;5863;52.832;4.758;2023-04-25T01:06:05;12.53;;;2.63;;
11614;SDS011;5863;52.832;4.758;2023-04-25T01:08:33;14.30;;;2.90;;
11614;SDS011;5863;52.832;4.758;2023-04-25T01:11:01;13.90;;;3.00;;
11614;SDS011;5863;52.832;4.758;2023-04-25T01:13:29;11.33;;;3.13;;
11614;SDS011;5863;52.832;4.758;2023-04-25T01:15:56;7.37;;;2.60;;
11614;SDS011;5863;52.832;4.758;2023-04-25T01:18:23;16.10;;;2.90;;
11614;SDS011;5863;52.832;4.758;2023-04-25T01:20:51;10.53;;;2.50;;
11614;SDS011;5863;52.832;4.758;2023-04-25T01:23:20;9.73;;;2.57;;
11614;SDS011;5863;52.832;4.758;2023-04-25T01:25:47;10.47;;;2.67;;
11614;SDS011;5863;52.832;4.758;2023-04-25T01:28:15;15.73;;;2.60;;
11614;SDS011;5863;52.832;4.758;2023-04-25T01:30:42;5.93;;;1.90;;
11614;SDS011;5863;52.832;4.758;2023-04-25T01:33:09;10.80;;;2.60;;
11614;SDS011;5863;52.832;4.758;2023-04-25T01:35:37;8.90;;;2.00;;
11614;SDS011;5863;52.832;4.758;2023-04-25T01:38:05;11.67;;;2.47;;
11614;SDS011;5863;52.832;4.758;2023-04-25T01:40:36;9.37;;;2.23;;
11614;SDS011;5863;52.832;4.758;2023-04-25T01:43:07;13.40;;;2.63;;
11614;SDS011;5863;52.832;4.758;2023-04-25T01:45:36;10.03;;;2.43;;
11614;SDS011;5863;52.832;4.758;2023-04-25T01:48:05;14.63;;;2.70;;
11614;SDS011;5863;52.832;4.758;2023-04-25T01:50:31;14.53;;;3.00;;
11614;SDS011;5863;52.832;4.758;2023-04-25T01:52:58;10.70;;;2.60;;
11614;SDS011;5863;52.832;4.758;2023-04-25T01:55:26;8.47;;;2.10;;
11614;SDS011;5863;52.832;4.758;2023-04-25T01:57:55;8.13;;;1.93;;
11614;SDS011;5863;52.832;4.758;2023-04-25T02:00:22;9.43;;;2.53;;
11614;SDS011;5863;52.832;4.758;2023-04-25T02:02:49;8.87;;;2.43;;
11614;SDS011;5863;52.832;4.758;2023-04-25T02:05:18;10.30;;;2.50;;
11614;SDS011;5863;52.832;4.758;2023-04-25T02:07:45;7.50;;;1.97;;
11614;SDS011;5863;52.832;4.758;2023-04-25T02:10:12;8.37;;;2.13;;
11614;SDS011;5863;52.832;4.758;2023-04-25T02:12:39;7.57;;;2.07;;
11614;SDS011;5863;52.832;4.758;2023-04-25T02:15:07;9.30;;;2.37;;
11614;SDS011;5863;52.832;4.758;2023-04-25T02:17:34;8.13;;;2.63;;
11614;SDS011;5863;52.832;4.758;2023-04-25T02:20:01;12.50;;;2.50;;
11614;SDS011;5863;52.832;4.758;2023-04-25T02:22:29;10.40;;;2.23;;
11614;SDS011;5863;52.832;4.758;2023-04-25T02:24:56;9.83;;;2.13;;
11614;SDS011;5863;52.832;4.758;2023-04-25T02:27:23;11.27;;;2.43;;
11614;SDS011;5863;52.832;4.758;2023-04-25T02:29:50;11.57;;;2.30;;
11614;SDS011;5863;52.832;4.758;2023-04-25T02:32:18;8.80;;;2.33;;
11614;SDS011;5863;52.832;4.758;2023-04-25T02:34:45;6.13;;;1.87;;
11614;SDS011;5863;52.832;4.758;2023-04-25T02:37:13;8.20;;;2.00;;
11614;SDS011;5863;52.832;4.758;2023-04-25T02:39:39;8.67;;;2.30;;
11614;SDS011;5863;52.832;4.758;2023-04-25T02:42:06;12.10;;;2.03;;
11614;SDS011;5863;52.832;4.758;2023-04-25T02:44:33;9.63;;;2.13;;
11614;SDS011;5863;52.832;4.758;2023-04-25T02:46:59;6.97;;;2.20;;
11614;SDS011;5863;52.832;4.758;2023-04-25T02:49:27;11.70;;;2.57;;
11614;SDS011;5863;52.832;4.758;2023-04-25T02:51:54;8.20;;;2.13;;
11614;SDS011;5863;52.832;4.758;2023-04-25T02:54:21;8.97;;;2.33;;
11614;SDS011;5863;52.832;4.758;2023-04-25T02:56:47;8.03;;;2.10;;
11614;SDS011;5863;52.832;4.758;2023-04-25T02:59:14;8.53;;;2.10;;
11614;SDS011;5863;52.832;4.758;2023-04-25T03:01:41;13.03;;;2.20;;
11614;SDS011;5863;52.832;4.758;2023-04-25T03:04:08;10.60;;;2.80;;
11614;SDS011;5863;52.832;4.758;2023-04-25T03:06:36;12.57;;;2.13;;
11614;SDS011;5863;52.832;4.758;2023-04-25T03:09:02;11.57;;;2.47;;
11614;SDS011;5863;52.832;4.758;2023-04-25T03:11:29;7.13;;;2.17;;
11614;SDS011;5863;52.832;4.758;2023-04-25T03:13:56;7.60;;;2.30;;
11614;SDS011;5863;52.832;4.758;2023-04-25T03:16:23;11.00;;;2.63;;
11614;SDS011;5863;52.832;4.758;2023-04-25T03:18:50;11.93;;;2.50;;
11614;SDS011;5863;52.832;4.758;2023-04-25T03:21:16;12.03;;;2.20;;
11614;SDS011;5863;52.832;4.758;2023-04-25T03:23:44;10.57;;;2.50;;
11614;SDS011;5863;52.832;4.758;2023-04-25T03:26:11;17.20;;;3.17;;
11614;SDS011;5863;52.832;4.758;2023-04-25T03:28:38;11.03;;;2.43;;
11614;SDS011;5863;52.832;4.758;2023-04-25T03:31:05;13.43;;;2.53;;
11614;SDS011;5863;52.832;4.758;2023-04-25T03:33:31;10.70;;;2.47;;
11614;SDS011;5863;52.832;4.758;2023-04-25T03:35:58;13.67;;;2.30;;
11614;SDS011;5863;52.832;4.758;2023-04-25T03:38:25;6.97;;;2.20;;
11614;SDS011;5863;52.832;4.758;2023-04-25T03:40:53;9.87;;;2.30;;
11614;SDS011;5863;52.832;4.758;2023-04-25T03:43:21;14.80;;;2.50;;
11614;SDS011;5863;52.832;4.758;2023-04-25T03:45:49;10.47;;;2.53;;
11614;SDS011;5863;52.832;4.758;2023-04-25T03:48:15;9.83;;;2.33;;
11614;SDS011;5863;52.832;4.758;2023-04-25T03:50:42;10.70;;;2.77;;
11614;SDS011;5863;52.832;4.758;2023-04-25T03:53:09;10.13;;;2.50;;
11614;SDS011;5863;52.832;4.758;2023-04-25T03:55:35;12.07;;;2.80;;
11614;SDS011;5863;52.832;4.758;2023-04-25T03:58:04;10.70;;;2.50;;
11614;SDS011;5863;52.832;4.758;2023-04-25T04:00:30;8.00;;;2.43;;
11614;SDS011;5863;52.832;4.758;2023-04-25T04:02:57;11.80;;;2.20;;
11614;SDS011;5863;52.832;4.758;2023-04-25T04:05:24;10.00;;;2.73;;
11614;SDS011;5863;52.832;4.758;2023-04-25T04:07:50;9.63;;;2.20;;
11614;SDS011;5863;52.832;4.758;2023-04-25T04:10:18;8.23;;;1.97;;
11614;SDS011;5863;52.832;4.758;2023-04-25T04:12:45;8.83;;;2.00;;
11614;SDS011;5863;52.832;4.758;2023-04-25T04:15:13;6.67;;;1.73;;
11614;SDS011;5863;52.832;4.758;2023-04-25T04:17:39;12.90;;;2.23;;
11614;SDS011;5863;52.832;4.758;2023-04-25T04:20:06;10.93;;;1.70;;
11614;SDS011;5863;52.832;4.758;2023-04-25T04:22:34;11.70;;;1.77;;
11614;SDS011;5863;52.832;4.758;2023-04-25T04:25:01;8.10;;;1.70;;
11614;SDS011;5863;52.832;4.758;2023-04-25T04:27:32;10.47;;;2.33;;
11614;SDS011;5863;52.832;4.758;2023-04-25T04:29:59;6.40;;;1.70;;
11614;SDS011;5863;52.832;4.758;2023-04-25T04:32:29;3.30;;;1.30;;
11614;SDS011;5863;52.832;4.758;2023-04-25T04:34:57;6.60;;;2.00;;
11614;SDS011;5863;52.832;4.758;2023-04-25T04:37:24;8.27;;;1.93;;
11614;SDS011;5863;52.832;4.758;2023-04-25T04:39:51;9.93;;;2.10;;
11614;SDS011;5863;52.832;4.758;2023-04-25T04:42:18;8.80;;;1.80;;
11614;SDS011;5863;52.832;4.758;2023-04-25T04:44:44;10.00;;;1.87;;
11614;SDS011;5863;52.832;4.758;2023-04-25T04:47:11;8.93;;;2.07;;
11614;SDS011;5863;52.832;4.758;2023-04-25T04:49:40;7.67;;;1.60;;
11614;SDS011;5863;52.832;4.758;2023-04-25T04:52:07;14.97;;;2.47;;
11614;SDS011;5863;52.832;4.758;2023-04-25T04:54:34;5.47;;;1.60;;
11614;SDS011;5863;52.832;4.758;2023-04-25T04:57:01;9.77;;;2.20;;
11614;SDS011;5863;52.832;4.758;2023-04-25T04:59:27;5.77;;;1.80;;
11614;SDS011;5863;52.832;4.758;2023-04-25T05:01:54;8.87;;;1.70;;
11614;SDS011;5863;52.832;4.758;2023-04-25T05:04:21;6.30;;;1.40;;
11614;SDS011;5863;52.832;4.758;2023-04-25T05:06:49;5.60;;;1.53;;
11614;SDS011;5863;52.832;4.758;2023-04-25T05:09:15;4.73;;;1.40;;
11614;SDS011;5863;52.832;4.758;2023-04-25T05:11:44;6.00;;;1.47;;
11614;SDS011;5863;52.832;4.758;2023-04-25T05:14:11;8.97;;;1.80;;
11614;SDS011;5863;52.832;4.758;2023-04-25T05:16:38;7.50;;;1.53;;
11614;SDS011;5863;52.832;4.758;2023-04-25T05:19:05;7.10;;;1.77;;
11614;SDS011;5863;52.832;4.758;2023-04-25T05:21:31;8.00;;;1.60;;
11614;SDS011;5863;52.832;4.758;2023-04-25T05:24:01;9.17;;;2.07;;
11614;SDS011;5863;52.832;4.758;2023-04-25T05:26:28;5.03;;;1.80;;
11614;SDS011;5863;52.832;4.758;2023-04-25T05:28:56;3.53;;;1.47;;
11614;SDS011;5863;52.832;4.758;2023-04-25T05:31:23;6.43;;;2.13;;
11614;SDS011;5863;52.832;4.758;2023-04-25T05:33:50;12.77;;;1.67;;
11614;SDS011;5863;52.832;4.758;2023-04-25T05:36:17;10.10;;;1.70;;
11614;SDS011;5863;52.832;4.758;2023-04-25T05:38:44;7.60;;;2.05;;
11614;SDS011;5863;52.832;4.758;2023-04-25T05:41:13;5.25;;;2.03;;
11614;SDS011;5863;52.832;4.758;2023-04-25T05:43:40;6.72;;;1.85;;
11614;SDS011;5863;52.832;4.758;2023-04-25T05:46:10;6.25;;;1.60;;
11614;SDS011;5863;52.832;4.758;2023-04-25T05:48:37;6.70;;;1.77;;
11614;SDS011;5863;52.832;4.758;2023-04-25T05:51:03;6.30;;;1.95;;
11614;SDS011;5863;52.832;4.758;2023-04-25T05:53:30;9.32;;;1.83;;
11614;SDS011;5863;52.832;4.758;2023-04-25T05:55:57;12.05;;;2.10;;
11614;SDS011;5863;52.832;4.758;2023-04-25T05:58:26;8.73;;;1.98;;
11614;SDS011;5863;52.832;4.758;2023-04-25T06:00:53;11.90;;;2.10;;
11614;SDS011;5863;52.832;4.758;2023-04-25T06:03:28;7.82;;;2.05;;
11614;SDS011;5863;52.832;4.758;2023-04-25T06:05:55;6.60;;;2.05;;
11614;SDS011;5863;52.832;4.758;2023-04-25T06:08:21;6.13;;;1.90;;
11614;SDS011;5863;52.832;4.758;2023-04-25T06:10:48;6.63;;;2.00;;
11614;SDS011;5863;52.832;4.758;2023-04-25T06:13:15;5.20;;;1.55;;
11614;SDS011;5863;52.832;4.758;2023-04-25T06:15:43;5.93;;;1.58;;
11614;SDS011;5863;52.832;4.758;2023-04-25T06:18:10;4.85;;;1.58;;
11614;SDS011;5863;52.832;4.758;2023-04-25T06:20:36;5.78;;;1.60;;
11614;SDS011;5863;52.832;4.758;2023-04-25T06:23:03;5.60;;;1.33;;
11614;SDS011;5863;52.832;4.758;2023-04-25T06:25:30;5.68;;;1.63;;
11614;SDS011;5863;52.832;4.758;2023-04-25T06:27:57;2.70;;;1.20;;
11614;SDS011;5863;52.832;4.758;2023-04-25T06:30:24;1.73;;;0.70;;
11614;SDS011;5863;52.832;4.758;2023-04-25T06:32:52;2.90;;;0.80;;
11614;SDS011;5863;52.832;4.758;2023-04-25T06:35:29;2.85;;;0.77;;
11614;SDS011;5863;52.832;4.758;2023-04-25T06:37:56;3.10;;;1.33;;
11614;SDS011;5863;52.832;4.758;2023-04-25T06:40:23;5.07;;;1.80;;
11614;SDS011;5863;52.832;4.758;2023-04-25T06:42:49;4.50;;;1.83;;
11614;SDS011;5863;52.832;4.758;2023-04-25T06:45:16;8.18;;;1.95;;
11614;SDS011;5863;52.832;4.758;2023-04-25T06:47:45;6.82;;;1.58;;
11614;SDS011;5863;52.832;4.758;2023-04-25T06:50:13;4.68;;;1.48;;
11614;SDS011;5863;52.832;4.758;2023-04-25T06:52:40;2.83;;;1.58;;
11614;SDS011;5863;52.832;4.758;2023-04-25T06:55:06;4.55;;;1.38;;
11614;SDS011;5863;52.832;4.758;2023-04-25T06:57:34;6.28;;;1.40;;
11614;SDS011;5863;52.832;4.758;2023-04-25T07:00:00;5.47;;;1.85;;
11614;SDS011;5863;52.832;4.758;2023-04-25T07:02:30;6.90;;;1.70;;
11614;SDS011;5863;52.832;4.758;2023-04-25T07:04:56;6.18;;;1.75;;
11614;SDS011;5863;52.832;4.758;2023-04-25T07:07:27;8.80;;;1.77;;
11614;SDS011;5863;52.832;4.758;2023-04-25T07:09:53;7.13;;;1.73;;
11614;SDS011;5863;52.832;4.758;2023-04-25T07:12:20;4.70;;;1.67;;
11614;SDS011;5863;52.832;4.758;2023-04-25T07:14:47;6.68;;;1.80;;
11614;SDS011;5863;52.832;4.758;2023-04-25T07:17:14;6.20;;;1.83;;
11614;SDS011;5863;52.832;4.758;2023-04-25T07:19:40;6.55;;;2.03;;
11614;SDS011;5863;52.832;4.758;2023-04-25T07:22:08;8.85;;;1.95;;
11614;SDS011;5863;52.832;4.758;2023-04-25T07:24:36;9.02;;;2.40;;
11614;SDS011;5863;52.832;4.758;2023-04-25T07:27:03;5.38;;;2.50;;
11614;SDS011;5863;52.832;4.758;2023-04-25T07:29:30;13.45;;;2.50;;
11614;SDS011;5863;52.832;4.758;2023-04-25T07:31:58;5.45;;;1.60;;
11614;SDS011;5863;52.832;4.758;2023-04-25T07:34:24;6.85;;;1.67;;
11614;SDS011;5863;52.832;4.758;2023-04-25T07:36:51;6.63;;;1.48;;
11614;SDS011;5863;52.832;4.758;2023-04-25T07:39:18;9.10;;;1.67;;
11614;SDS011;5863;52.832;4.758;2023-04-25T07:41:46;5.85;;;1.33;;
11614;SDS011;5863;52.832;4.758;2023-04-25T07:44:17;4.78;;;1.40;;
11614;SDS011;5863;52.832;4.758;2023-04-25T07:46:44;6.13;;;1.58;;
11614;SDS011;5863;52.832;4.758;2023-04-25T07:49:10;4.72;;;1.45;;
11614;SDS011;5863;52.832;4.758;2023-04-25T07:51:37;10.00;;;1.67;;
11614;SDS011;5863;52.832;4.758;2023-04-25T07:54:04;5.85;;;1.90;;
11614;SDS011;5863;52.832;4.758;2023-04-25T07:56:31;5.20;;;1.80;;
11614;SDS011;5863;52.832;4.758;2023-04-25T07:59:08;3.97;;;1.30;;
11614;SDS011;5863;52.832;4.758;2023-04-25T08:01:36;5.68;;;1.02;;
11614;SDS011;5863;52.832;4.758;2023-04-25T08:04:03;2.63;;;1.15;;
11614;SDS011;5863;52.832;4.758;2023-04-25T08:06:30;4.60;;;1.63;;
11614;SDS011;5863;52.832;4.758;2023-04-25T08:08:57;5.93;;;1.70;;
11614;SDS011;5863;52.832;4.758;2023-04-25T08:11:23;3.58;;;1.48;;
11614;SDS011;5863;52.832;4.758;2023-04-25T08:13:50;9.43;;;1.92;;
11614;SDS011;5863;52.832;4.758;2023-04-25T08:16:18;7.22;;;1.90;;
11614;SDS011;5863;52.832;4.758;2023-04-25T08:18:45;5.13;;;1.88;;
11614;SDS011;5863;52.832;4.758;2023-04-25T08:21:11;5.25;;;1.63;;
11614;SDS011;5863;52.832;4.758;2023-04-25T08:23:41;6.65;;;2.00;;
11614;SDS011;5863;52.832;4.758;2023-04-25T08:26:08;6.40;;;1.90;;
11614;SDS011;5863;52.832;4.758;2023-04-25T08:28:34;8.82;;;1.90;;
11614;SDS011;5863;52.832;4.758;2023-04-25T08:31:01;6.00;;;1.77;;
11614;SDS011;5863;52.832;4.758;2023-04-25T08:33:29;7.55;;;2.00;;
11614;SDS011;5863;52.832;4.758;2023-04-25T08:35:57;6.78;;;2.30;;
11614;SDS011;5863;52.832;4.758;2023-04-25T08:38:24;11.10;;;2.15;;
11614;SDS011;5863;52.832;4.758;2023-04-25T08:40:51;7.63;;;2.05;;
11614;SDS011;5863;52.832;4.758;2023-04-25T08:43:20;5.43;;;1.58;;
11614;SDS011;5863;52.832;4.758;2023-04-25T08:45:47;8.95;;;2.20;;
11614;SDS011;5863;52.832;4.758;2023-04-25T08:48:15;7.65;;;1.65;;
11614;SDS011;5863;52.832;4.758;2023-04-25T08:50:45;7.70;;;2.10;;
11614;SDS011;5863;52.832;4.758;2023-04-25T08:53:17;8.02;;;1.83;;
11614;SDS011;5863;52.832;4.758;2023-04-25T08:55:47;6.40;;;1.90;;
11614;SDS011;5863;52.832;4.758;2023-04-25T08:58:16;9.57;;;2.15;;
11614;SDS011;5863;52.832;4.758;2023-04-25T09:00:45;8.43;;;1.65;;
11614;SDS011;5863;52.832;4.758;2023-04-25T09:03:12;5.30;;;1.50;;
11614;SDS011;5863;52.832;4.758;2023-04-25T09:05:39;4.13;;;1.42;;
11614;SDS011;5863;52.832;4.758;2023-04-25T09:08:08;4.90;;;1.27;;
11614;SDS011;5863;52.832;4.758;2023-04-25T09:10:35;3.55;;;1.55;;
11614;SDS011;5863;52.832;4.758;2023-04-25T09:13:02;5.80;;;1.40;;
11614;SDS011;5863;52.832;4.758;2023-04-25T09:15:31;7.20;;;1.63;;
11614;SDS011;5863;52.832;4.758;2023-04-25T09:17:58;7.07;;;1.83;;
11614;SDS011;5863;52.832;4.758;2023-04-25T09:20:25;6.15;;;1.70;;
11614;SDS011;5863;52.832;4.758;2023-04-25T09:23:02;4.60;;;1.50;;
11614;SDS011;5863;52.832;4.758;2023-04-25T09:25:34;7.50;;;1.65;;
11614;SDS011;5863;52.832;4.758;2023-04-25T09:28:04;3.65;;;1.35;;
11614;SDS011;5863;52.832;4.758;2023-04-25T09:30:34;5.20;;;1.25;;
11614;SDS011;5863;52.832;4.758;2023-04-25T09:33:05;4.35;;;1.33;;
11614;SDS011;5863;52.832;4.758;2023-04-25T09:35:36;4.75;;;1.60;;
11614;SDS011;5863;52.832;4.758;2023-04-25T09:38:07;10.32;;;1.73;;
11614;SDS011;5863;52.832;4.758;2023-04-25T09:40:39;5.75;;;1.88;;
11614;SDS011;5863;52.832;4.758;2023-04-25T09:43:10;5.57;;;1.48;;
11614;SDS011;5863;52.832;4.758;2023-04-25T09:45:41;5.82;;;1.75;;
11614;SDS011;5863;52.832;4.758;2023-04-25T09:48:10;5.40;;;1.35;;
11614;SDS011;5863;52.832;4.758;2023-04-25T09:50:37;5.40;;;1.50;;
11614;SDS011;5863;52.832;4.758;2023-04-25T09:53:05;7.25;;;1.63;;
11614;SDS011;5863;52.832;4.758;2023-04-25T09:55:32;8.45;;;2.13;;
11614;SDS011;5863;52.832;4.758;2023-04-25T09:58:03;5.68;;;1.75;;
11614;SDS011;5863;52.832;4.758;2023-04-25T10:00:32;5.15;;;1.40;;
11614;SDS011;5863;52.832;4.758;2023-04-25T10:03:00;6.43;;;2.00;;
11614;SDS011;5863;52.832;4.758;2023-04-25T10:05:30;7.35;;;1.60;;
11614;SDS011;5863;52.832;4.758;2023-04-25T10:07:59;5.78;;;1.77;;
11614;SDS011;5863;52.832;4.758;2023-04-25T10:10:29;5.60;;;1.92;;
11614;SDS011;5863;52.832;4.758;2023-04-25T10:13:02;6.80;;;1.95;;
11614;SDS011;5863;52.832;4.758;2023-04-25T10:15:30;5.18;;;1.63;;
11614;SDS011;5863;52.832;4.758;2023-04-25T10:18:00;8.90;;;1.88;;
11614;SDS011;5863;52.832;4.758;2023-04-25T10:20:27;8.80;;;1.85;;
11614;SDS011;5863;52.832;4.758;2023-04-25T10:22:55;4.60;;;1.40;;
11614;SDS011;5863;52.832;4.758;2023-04-25T10:25:29;5.78;;;2.15;;
11614;SDS011;5863;52.832;4.758;2023-04-25T10:27:56;2.97;;;1.10;;
11614;SDS011;5863;52.832;4.758;2023-04-25T10:30:27;6.10;;;1.40;;
11614;SDS011;5863;52.832;4.758;2023-04-25T10:32:54;5.20;;;1.77;;
11614;SDS011;5863;52.832;4.758;2023-04-25T10:35:24;5.63;;;1.55;;
11614;SDS011;5863;52.832;4.758;2023-04-25T10:37:58;3.33;;;1.40;;
11614;SDS011;5863;52.832;4.758;2023-04-25T10:40:27;5.82;;;1.90;;
11614;SDS011;5863;52.832;4.758;2023-04-25T10:42:55;10.48;;;2.03;;
11614;SDS011;5863;52.832;4.758;2023-04-25T10:45:52;5.85;;;1.52;;
11614;SDS011;5863;52.832;4.758;2023-04-25T10:48:24;4.50;;;1.60;;
11614;SDS011;5863;52.832;4.758;2023-04-25T10:51:06;7.68;;;1.80;;
11614;SDS011;5863;52.832;4.758;2023-04-25T10:53:33;9.80;;;1.90;;
11614;SDS011;5863;52.832;4.758;2023-04-25T10:56:00;8.10;;;1.90;;
11614;SDS011;5863;52.832;4.758;2023-04-25T10:58:35;3.85;;;1.60;;
11614;SDS011;5863;52.832;4.758;2023-04-25T11:01:03;4.53;;;1.70;;
11614;SDS011;5863;52.832;4.758;2023-04-25T11:03:30;5.85;;;1.73;;
11614;SDS011;5863;52.832;4.758;2023-04-25T11:05:57;5.13;;;1.77;;
11614;SDS011;5863;52.832;4.758;2023-04-25T11:08:28;3.33;;;1.30;;
11614;SDS011;5863;52.832;4.758;2023-04-25T11:11:06;5.45;;;1.48;;
11614;SDS011;5863;52.832;4.758;2023-04-25T11:13:34;4.93;;;1.63;;
11614;SDS011;5863;52.832;4.758;2023-04-25T11:16:01;4.75;;;1.63;;
11614;SDS011;5863;52.832;4.758;2023-04-25T11:18:29;2.70;;;1.20;;
11614;SDS011;5863;52.832;4.758;2023-04-25T11:20:57;7.95;;;1.45;;
11614;SDS011;5863;52.832;4.758;2023-04-25T11:23:25;2.33;;;1.30;;
11614;SDS011;5863;52.832;4.758;2023-04-25T11:25:52;4.80;;;1.50;;
11614;SDS011;5863;52.832;4.758;2023-04-25T11:28:20;3.63;;;1.33;;
11614;SDS011;5863;52.832;4.758;2023-04-25T11:30:48;6.47;;;1.63;;
11614;SDS011;5863;52.832;4.758;2023-04-25T11:33:16;5.40;;;1.73;;
11614;SDS011;5863;52.832;4.758;2023-04-25T11:35:44;5.15;;;1.60;;
11614;SDS011;5863;52.832;4.758;2023-04-25T11:38:11;4.55;;;1.60;;
11614;SDS011;5863;52.832;4.758;2023-04-25T11:40:37;5.53;;;1.42;;
11614;SDS011;5863;52.832;4.758;2023-04-25T11:43:04;3.92;;;1.17;;
11614;SDS011;5863;52.832;4.758;2023-04-25T11:45:31;3.67;;;1.40;;
11614;SDS011;5863;52.832;4.758;2023-04-25T11:47:58;5.53;;;1.58;;
11614;SDS011;5863;52.832;4.758;2023-04-25T11:50:26;5.28;;;1.80;;
11614;SDS011;5863;52.832;4.758;2023-04-25T11:52:55;5.65;;;1.77;;
11614;SDS011;5863;52.832;4.758;2023-04-25T11:55:23;8.15;;;1.60;;
11614;SDS011;5863;52.832;4.758;2023-04-25T11:57:50;6.47;;;1.70;;
11614;SDS011;5863;52.832;4.758;2023-04-25T12:00:17;6.38;;;1.23;;
11614;SDS011;5863;52.832;4.758;2023-04-25T12:02:46;6.40;;;1.67;;
11614;SDS011;5863;52.832;4.758;2023-04-25T12:05:15;5.38;;;1.80;;
11614;SDS011;5863;52.832;4.758;2023-04-25T12:07:43;8.13;;;1.65;;
11614;SDS011;5863;52.832;4.758;2023-04-25T12:10:11;9.55;;;1.95;;
11614;SDS011;5863;52.832;4.758;2023-04-25T12:12:41;6.90;;;1.80;;
11614;SDS011;5863;52.832;4.758;2023-04-25T12:15:09;3.50;;;1.48;;
11614;SDS011;5863;52.832;4.758;2023-04-25T12:17:38;6.53;;;1.60;;
11614;SDS011;5863;52.832;4.758;2023-04-25T12:20:08;5.25;;;1.48;;
11614;SDS011;5863;52.832;4.758;2023-04-25T12:22:36;6.03;;;1.55;;
11614;SDS011;5863;52.832;4.758;2023-04-25T12:25:05;4.78;;;1.40;;
11614;SDS011;5863;52.832;4.758;2023-04-25T12:27:32;1.58;;;1.00;;
11614;SDS011;5863;52.832;4.758;2023-04-25T12:30:01;3.97;;;1.38;;
11614;SDS011;5863;52.832;4.758;2023-04-25T12:32:29;4.80;;;1.25;;
11614;SDS011;5863;52.832;4.758;2023-04-25T12:34:56;3.13;;;1.42;;
11614;SDS011;5863;52.832;4.758;2023-04-25T12:37:23;2.33;;;1.20;;
11614;SDS011;5863;52.832;4.758;2023-04-25T12:39:49;4.05;;;1.27;;
11614;SDS011;5863;52.832;4.758;2023-04-25T12:42:18;4.45;;;1.50;;
11614;SDS011;5863;52.832;4.758;2023-04-25T12:44:44;6.07;;;1.83;;
11614;SDS011;5863;52.832;4.758;2023-04-25T12:47:11;4.75;;;1.40;;
11614;SDS011;5863;52.832;4.758;2023-04-25T12:49:38;3.38;;;1.65;;
11614;SDS011;5863;52.832;4.758;2023-04-25T12:52:05;4.20;;;1.55;;
11614;SDS011;5863;52.832;4.758;2023-04-25T12:54:31;4.80;;;1.35;;
11614;SDS011;5863;52.832;4.758;2023-04-25T12:56:58;6.82;;;1.40;;
11614;SDS011;5863;52.832;4.758;2023-04-25T12:59:27;6.32;;;1.30;;
11614;SDS011;5863;52.832;4.758;2023-04-25T13:01:54;3.25;;;1.08;;
11614;SDS011;5863;52.832;4.758;2023-04-25T13:04:21;7.00;;;1.70;;
11614;SDS011;5863;52.832;4.758;2023-04-25T13:06:48;3.03;;;1.45;;
11614;SDS011;5863;52.832;4.758;2023-04-25T13:09:15;7.15;;;1.67;;
11614;SDS011;5863;52.832;4.758;2023-04-25T13:11:42;7.43;;;1.65;;
11614;SDS011;5863;52.832;4.758;2023-04-25T13:14:08;6.30;;;1.67;;
11614;SDS011;5863;52.832;4.758;2023-04-25T13:16:37;6.65;;;1.95;;
11614;SDS011;5863;52.832;4.758;2023-04-25T13:19:03;5.97;;;1.42;;
11614;SDS011;5863;52.832;4.758;2023-04-25T13:21:32;7.28;;;1.52;;
11614;SDS011;5863;52.832;4.758;2023-04-25T13:23:59;7.90;;;2.05;;
11614;SDS011;5863;52.832;4.758;2023-04-25T13:26:25;3.40;;;1.27;;
11614;SDS011;5863;52.832;4.758;2023-04-25T13:28:52;9.27;;;2.00;;
11614;SDS011;5863;52.832;4.758;2023-04-25T13:31:19;4.38;;;1.33;;
11614;SDS011;5863;52.832;4.758;2023-04-25T13:33:47;4.55;;;1.20;;
11614;SDS011;5863;52.832;4.758;2023-04-25T13:36:13;4.68;;;1.40;;
11614;SDS011;5863;52.832;4.758;2023-04-25T13:38:40;7.07;;;1.48;;
11614;SDS011;5863;52.832;4.758;2023-04-25T13:41:09;4.68;;;1.38;;
11614;SDS011;5863;52.832;4.758;2023-04-25T13:43:41;5.53;;;2.00;;
11614;SDS011;5863;52.832;4.758;2023-04-25T13:46:07;8.90;;;1.92;;
11614;SDS011;5863;52.832;4.758;2023-04-25T13:48:34;6.10;;;1.60;;
11614;SDS011;5863;52.832;4.758;2023-04-25T13:51:03;8.32;;;1.63;;
11614;SDS011;5863;52.832;4.758;2023-04-25T13:53:29;5.53;;;1.98;;
11614;SDS011;5863;52.832;4.758;2023-04-25T13:55:56;9.52;;;1.77;;
11614;SDS011;5863;52.832;4.758;2023-04-25T13:58:23;11.70;;;2.42;;
11614;SDS011;5863;52.832;4.758;2023-04-25T14:00:50;6.07;;;1.70;;
11614;SDS011;5863;52.832;4.758;2023-04-25T14:03:17;12.52;;;2.50;;
11614;SDS011;5863;52.832;4.758;2023-04-25T14:05:44;8.90;;;2.25;;
11614;SDS011;5863;52.832;4.758;2023-04-25T14:08:12;7.80;;;1.95;;
11614;SDS011;5863;52.832;4.758;2023-04-25T14:10:39;5.80;;;1.60;;
11614;SDS011;5863;52.832;4.758;2023-04-25T14:13:05;6.28;;;2.03;;
11614;SDS011;5863;52.832;4.758;2023-04-25T14:15:32;5.15;;;1.38;;
11614;SDS011;5863;52.832;4.758;2023-04-25T14:17:59;8.38;;;2.03;;
11614;SDS011;5863;52.832;4.758;2023-04-25T14:20:26;6.50;;;1.65;;
11614;SDS011;5863;52.832;4.758;2023-04-25T14:22:53;4.75;;;1.45;;
11614;SDS011;5863;52.832;4.758;2023-04-25T14:25:22;6.07;;;2.08;;
11614;SDS011;5863;52.832;4.758;2023-04-25T14:27:49;3.78;;;1.63;;
11614;SDS011;5863;52.832;4.758;2023-04-25T14:30:16;3.80;;;1.30;;
11614;SDS011;5863;52.832;4.758;2023-04-25T14:32:43;5.43;;;1.40;;
11614;SDS011;5863;52.832;4.758;2023-04-25T14:35:10;4.00;;;1.45;;
11614;SDS011;5863;52.832;4.758;2023-04-25T14:37:37;5.03;;;1.75;;
11614;SDS011;5863;52.832;4.758;2023-04-25T14:40:04;7.78;;;2.05;;
11614;SDS011;5863;52.832;4.758;2023-04-25T14:42:35;6.57;;;1.75;;
11614;SDS011;5863;52.832;4.758;2023-04-25T14:45:02;7.00;;;1.95;;
11614;SDS011;5863;52.832;4.758;2023-04-25T14:47:29;8.82;;;2.08;;
11614;SDS011;5863;52.832;4.758;2023-04-25T14:49:55;5.85;;;1.73;;
11614;SDS011;5863;52.832;4.758;2023-04-25T14:52:22;7.03;;;1.75;;
11614;SDS011;5863;52.832;4.758;2023-04-25T14:54:50;7.88;;;2.05;;
11614;SDS011;5863;52.832;4.758;2023-04-25T14:57:17;8.68;;;2.20;;
11614;SDS011;5863;52.832;4.758;2023-04-25T14:59:45;6.35;;;2.10;;
11614;SDS011;5863;52.832;4.758;2023-04-25T15:02:12;6.75;;;2.00;;